LX1957 / HB-IOD 7700 Squawk Report (22nd of February, 2018)

Aircraft A321 Reg No. HB-IOD Age 23 years old
Model A321 Jet engines 2 First flight 13-03-95
Registered 07-03-07 Rollout 03-95 Delivered 04-04-95
Construction No. 0522 Line No. N/A Series 111
ADSHEX 4B168F Airline name Swiss International Air Lines Owner N/A
Airfield based Zurich-Kloten~Zurich~HB First tracked 2011-04-01 15:58:02

Flight history for HB-IOD

Route Flight No Date Playback
Zurich (ZRH) - Skopje (SKP) WK438 2018-12-16 08:13:00
Eleftherios Venizelos Intl (ATH) - Zurich (ZRH) LX1839 2018-12-15 18:38:00
Zurich (ZRH) - Eleftherios Venizelos Intl (ATH) LX1838 2018-12-15 14:47:00
Ben Gurion (TLV) - Zurich (ZRH) LX257 2018-12-15 12:14:00
Zurich (ZRH) - Ben Gurion (TLV) LX256 2018-12-15 01:38:00
Cote D Azur (NCE) - Zurich (ZRH) LX561 2018-12-14 20:01:00
Zurich (ZRH) - Cote D Azur (NCE) LX560 2018-12-14 18:18:00
Hamburg (HAM) - Zurich (ZRH) LX1057 2018-12-14 15:34:00
Zurich (ZRH) - Hamburg (HAM) LX1056 2018-12-14 14:16:00
Schiphol (AMS) - Zurich (ZRH) LX725 2018-12-14 10:25:00
Zurich (ZRH) - Schiphol (AMS) LX724 2018-12-14 09:14:00
Eleftherios Venizelos Intl (ATH) - Zurich (ZRH) LX1839 2018-12-14 06:19:00
Zurich (ZRH) - Eleftherios Venizelos Intl (ATH) LX1838 2018-12-13 16:24:00
Geneve Cointrin (GVA) - Zurich (ZRH) LX2817 2018-12-12 18:28:00
Zurich (ZRH) - Geneve Cointrin (GVA) LX2808 2018-12-12 16:53:00
Eleftherios Venizelos Intl (ATH) - Zurich (ZRH) LX1831 2018-12-12 15:08:00
Zurich (ZRH) - Eleftherios Venizelos Intl (ATH) LX1830 2018-12-12 12:15:00
Heathrow (LHR) - Zurich (ZRH) LX327 2018-12-11 20:26:00
Zurich (ZRH) - Heathrow (LHR) LX326 2018-12-11 17:46:00
Malaga (AGP) - Zurich (ZRH) LX2111 2018-12-11 14:48:00
Time Lat Lon Altitude Heading Speed Vertical Rate
2018-02-22 20:18:16 GMT 43.440491 5.218410 0 47 0 0
2018-02-22 20:18:06 GMT 43.440487 5.218408 0 47 0 0
2018-02-22 20:17:46 GMT 43.440491 5.218410 0 47 0 0
2018-02-22 20:17:35 GMT 43.440441 5.218342 0 50 3 0
2018-02-22 20:17:24 GMT 43.440315 5.218195 0 70 4 0
2018-02-22 20:17:10 GMT 43.440208 5.217950 0 120 7 0
2018-02-22 20:17:03 GMT 43.440361 5.217705 0 120 12 0
2018-02-22 20:16:53 GMT 43.440350 5.217034 0 42 13 0
2018-02-22 20:16:42 GMT 43.439907 5.216478 0 42 12 0
2018-02-22 20:16:31 GMT 43.439507 5.215967 0 45 11 0
2018-02-22 20:16:21 GMT 43.439198 5.215285 0 95 13 0
2018-02-22 20:16:09 GMT 43.439484 5.214450 0 132 15 0
2018-02-22 20:15:59 GMT 43.439953 5.213779 0 135 16 0
2018-02-22 20:15:48 GMT 43.440536 5.212997 0 132 16 0
2018-02-22 20:15:38 GMT 43.440983 5.212310 0 123 13 0
2018-02-22 20:15:27 GMT 43.441166 5.211528 0 59 13 0
2018-02-22 20:15:17 GMT 43.440777 5.211001 0 2 10 0
2018-02-22 20:15:06 GMT 43.440411 5.211049 0 343 5 0
2018-02-22 20:14:56 GMT 43.440151 5.211149 0 345 9 0
2018-02-22 20:14:45 GMT 43.439651 5.211345 0 340 12 0
2018-02-22 20:14:35 GMT 43.439163 5.211639 0 326 10 0
2018-02-22 20:14:24 GMT 43.438854 5.212007 0 315 17 0
2018-02-22 20:14:13 GMT 43.437664 5.213667 0 315 86 0
2018-02-22 20:14:03 GMT 43.434368 5.218362 0 315 125 0
2018-02-22 20:13:52 GMT 43.430073 5.224522 350 315 123 -832
2018-02-22 20:13:41 GMT 43.425888 5.230450 500 314 124 -832
2018-02-22 20:13:30 GMT 43.421494 5.236710 675 315 125 -896
2018-02-22 20:13:20 GMT 43.417328 5.242650 825 315 127 -832
2018-02-22 20:13:10 GMT 43.413033 5.248718 1,000 315 128 -896
2018-02-22 20:13:06 GMT 43.411591 5.250811 1,050 315 128 -896
2018-02-22 20:12:59 GMT 43.408611 5.255062 1,150 315 128 -832
2018-02-22 20:12:54 GMT 43.406570 5.257916 1,225 315 128 -832
2018-02-22 20:12:46 GMT 43.403183 5.262707 1,350 315 129 -1024
2018-02-22 20:12:38 GMT 43.399933 5.267306 1,500 314 130 -1088
2018-02-22 20:12:33 GMT 43.397644 5.270627 1,600 314 130 -1152
2018-02-22 20:12:25 GMT 43.394321 5.275334 1,750 314 132 -1088
2018-02-22 20:12:17 GMT 43.391014 5.280108 1,900 315 136 -896
2018-02-22 20:12:14 GMT 43.389805 5.281808 1,950 315 137 -960
2018-02-22 20:12:06 GMT 43.386082 5.287105 2,075 315 142 -896
2018-02-22 20:12:03 GMT 43.384415 5.289406 2,125 315 143 -640
2018-02-22 20:11:53 GMT 43.379974 5.295730 2,175 314 151 128
2018-02-22 20:11:45 GMT 43.375946 5.301414 2,200 315 159 0
2018-02-22 20:11:42 GMT 43.374676 5.303192 2,200 315 159 -64
2018-02-22 20:11:32 GMT 43.368996 5.310909 2,225 316 159 -64
2018-02-22 20:11:22 GMT 43.363689 5.318102 2,225 319 157 -192
2018-02-22 20:11:14 GMT 43.359314 5.323203 2,225 330 153 -448
2018-02-22 20:11:10 GMT 43.357132 5.325048 2,225 339 153 -768
2018-02-22 20:11:03 GMT 43.352509 5.326772 2,275 358 157 -1088
2018-02-22 20:11:00 GMT 43.350174 5.326900 2,325 359 158 -1152
2018-02-22 20:10:53 GMT 43.344955 5.327028 2,475 0 158 -1216
2018-02-22 20:10:50 GMT 43.342693 5.327127 2,550 0 158 -1216
2018-02-22 20:10:43 GMT 43.337341 5.327192 2,700 0 157 -1216
2018-02-22 20:10:39 GMT 43.334656 5.327283 2,775 359 157 -1216
2018-02-22 20:10:32 GMT 43.329346 5.327411 2,925 359 156 -1088
2018-02-22 20:10:29 GMT 43.327053 5.327519 3,000 0 156 -960
2018-02-22 20:10:21 GMT 43.321560 5.327650 3,100 0 158 -640
2018-02-22 20:10:18 GMT 43.319698 5.327650 3,125 0 159 -512
2018-02-22 20:10:11 GMT 43.313965 5.327794 3,200 359 162 -192
2018-02-22 20:10:08 GMT 43.311584 5.327858 3,200 359 163 -64
2018-02-22 20:09:58 GMT 43.304054 5.328108 3,225 359 163 -64
2018-02-22 20:09:50 GMT 43.298328 5.328238 3,225 359 162 -128
2018-02-22 20:09:47 GMT 43.296021 5.328305 3,225 359 161 -128
2018-02-22 20:09:40 GMT 43.290508 5.328500 3,250 359 162 -512
2018-02-22 20:09:37 GMT 43.288181 5.328565 3,275 359 163 -640
2018-02-22 20:09:29 GMT 43.282547 5.328827 3,375 359 165 -960
2018-02-22 20:09:26 GMT 43.280273 5.328880 3,425 359 166 -960
2018-02-22 20:09:19 GMT 43.274368 5.329072 3,550 359 168 -896
2018-02-22 20:09:15 GMT 43.271610 5.329154 3,600 359 169 -960
2018-02-22 20:09:08 GMT 43.266083 5.329327 3,700 359 171 -960
2018-02-22 20:09:05 GMT 43.263649 5.329415 3,750 0 172 -896
2018-02-22 20:08:58 GMT 43.257736 5.329546 3,875 0 175 -768
2018-02-22 20:08:54 GMT 43.255268 5.329612 3,900 0 177 -704
2018-02-22 20:08:47 GMT 43.249054 5.329647 4,000 0 182 -640
2018-02-22 20:08:44 GMT 43.246353 5.329583 4,025 1 184 -640
2018-02-22 20:08:37 GMT 43.240417 5.329219 4,100 5 188 -832
2018-02-22 20:08:33 GMT 43.237392 5.328892 4,125 9 191 -1152
2018-02-22 20:08:26 GMT 43.230873 5.326865 4,200 24 200 -384
2018-02-22 20:08:22 GMT 43.227951 5.325048 4,200 30 205 -64
2018-02-22 20:08:15 GMT 43.222172 5.319868 4,175 42 218 -448
2018-02-22 20:08:12 GMT 43.219376 5.316402 4,175 45 222 -64
2018-02-22 20:08:01 GMT 43.211788 5.305939 4,175 45 234 0
2018-02-22 20:07:54 GMT 43.206436 5.298604 4,175 45 241 -192
2018-02-22 20:07:51 GMT 43.203644 5.294691 4,200 45 246 -64
2018-02-22 20:07:44 GMT 43.197823 5.286582 4,200 45 251 0
2018-02-22 20:07:40 GMT 43.194241 5.281546 4,200 45 257 64
2018-02-22 20:07:33 GMT 43.189117 5.274484 4,200 45 264 -128
2018-02-22 20:07:30 GMT 43.186478 5.270819 4,200 45 265 64
2018-02-22 20:07:24 GMT 43.180893 5.263090 4,200 45 265 64
2018-02-22 20:07:20 GMT 43.177368 5.258235 4,200 45 265 0
2018-02-22 20:07:13 GMT 43.171383 5.249961 4,200 45 265 0
2018-02-22 20:07:09 GMT 43.167755 5.245014 4,200 45 265 0
2018-02-22 20:07:03 GMT 43.162628 5.237863 4,200 45 265 0
2018-02-22 20:06:58 GMT 43.158581 5.232304 4,200 45 265 0
2018-02-22 20:06:52 GMT 43.152481 5.223868 4,200 45 266 -64
2018-02-22 20:06:48 GMT 43.149673 5.219975 4,200 45 266 -64
2018-02-22 20:06:41 GMT 43.143867 5.211901 4,200 45 265 -64
2018-02-22 20:06:38 GMT 43.140797 5.207650 4,225 45 265 -64
2018-02-22 20:06:31 GMT 43.134697 5.199280 4,225 45 264 -128
2018-02-22 20:06:27 GMT 43.130814 5.193914 4,225 45 263 -256
2018-02-22 20:06:21 GMT 43.126373 5.187719 4,250 45 263 -384
2018-02-22 20:06:16 GMT 43.122643 5.182539 4,275 45 264 -704
2018-02-22 20:06:10 GMT 43.117447 5.175327 4,375 45 265 -1280
2018-02-22 20:06:06 GMT 43.113239 5.169525 4,475 45 266 -1472
2018-02-22 20:06:00 GMT 43.108166 5.162463 4,625 45 266 -1664
2018-02-22 20:05:55 GMT 43.103695 5.156250 4,775 45 266 -1664
2018-02-22 20:05:49 GMT 43.099037 5.149841 4,925 45 265 -1920
2018-02-22 20:05:45 GMT 43.095081 5.144414 5,075 45 265 -2112
2018-02-22 20:05:39 GMT 43.089981 5.137450 5,300 45 262 -1856
2018-02-22 20:05:34 GMT 43.086090 5.132084 5,450 45 261 -1920
2018-02-22 20:05:28 GMT 43.080963 5.125122 5,625 45 261 -1728
2018-02-22 20:05:24 GMT 43.077209 5.119948 5,750 45 261 -1728
2018-02-22 20:05:18 GMT 43.071945 5.112828 5,925 45 261 -1664
2018-02-22 20:05:13 GMT 43.068035 5.107465 6,050 45 263 -1600
2018-02-22 20:05:08 GMT 43.063431 5.101169 6,200 45 263 -1600
2018-02-22 20:05:02 GMT 43.058624 5.094590 6,350 45 264 -1536
2018-02-22 20:04:57 GMT 43.053909 5.088203 6,500 45 265 -1536
2018-02-22 20:04:52 GMT 43.049786 5.082550 6,625 45 266 -1472
2018-02-22 20:04:47 GMT 43.044937 5.075939 6,750 44 267 -1600
2018-02-22 20:04:42 GMT 43.040524 5.069929 6,900 45 268 -1728
2018-02-22 20:04:36 GMT 43.035820 5.063455 7,050 45 267 -1920
2018-02-22 20:04:32 GMT 43.031677 5.057765 7,225 45 267 -1920
2018-02-22 20:04:26 GMT 43.026791 5.051095 7,400 45 266 -1920
2018-02-22 20:04:21 GMT 43.022095 5.044577 7,575 45 265 -1920
2018-02-22 20:04:15 GMT 43.017242 5.037806 7,775 45 265 -2048
2018-02-22 20:04:11 GMT 43.013523 5.032588 7,925 45 265 -1984
2018-02-22 20:04:05 GMT 43.008408 5.025479 8,125 45 265 -1984
2018-02-22 20:04:00 GMT 43.004471 5.019985 8,275 45 265 -1920
2018-02-22 20:03:54 GMT 42.999115 5.012512 8,500 44 265 -2304
2018-02-22 20:03:49 GMT 42.994576 5.006561 8,675 37 269 -1728
2018-02-22 20:03:44 GMT 42.989456 5.001199 8,850 30 271 -1728
2018-02-22 20:03:39 GMT 42.984707 4.997471 9,025 22 273 -1664
2018-02-22 20:03:33 GMT 42.977489 4.993417 9,250 13 276 -1344
2018-02-22 20:03:29 GMT 42.972233 4.991651 9,375 7 279 -1024
2018-02-22 20:03:23 GMT 42.964050 4.990284 9,525 359 281 -1856
2018-02-22 20:03:18 GMT 42.958683 4.990343 9,575 353 286 -1856
2018-02-22 20:03:12 GMT 42.950027 4.992044 9,700 342 300 -448
2018-02-22 20:03:08 GMT 42.943405 4.995138 9,775 334 307 -640
2018-02-22 20:03:02 GMT 42.936478 4.999891 9,900 324 314 -832
2018-02-22 20:02:58 GMT 42.931824 5.004209 9,975 319 318 -1024
2018-02-22 20:02:51 GMT 42.925049 5.012895 10,150 307 322 -2240
2018-02-22 20:02:47 GMT 42.920933 5.019967 10,350 301 324 -2496
2018-02-22 20:02:41 GMT 42.916416 5.030823 10,625 290 326 -2560
2018-02-22 20:02:36 GMT 42.913528 5.041613 10,850 284 327 -2624
2018-02-22 20:02:30 GMT 42.911774 5.052114 11,125 275 328 -2688
2018-02-22 20:02:26 GMT 42.911247 5.060774 11,325 269 330 -2816
2018-02-22 20:02:20 GMT 42.911728 5.073512 11,625 260 331 -3136
2018-02-22 20:02:15 GMT 42.913055 5.082965 11,850 252 331 -3392
2018-02-22 20:02:09 GMT 42.915997 5.094321 12,175 244 330 -3456
2018-02-22 20:02:05 GMT 42.919209 5.103019 12,425 236 330 -3200
2018-02-22 20:01:59 GMT 42.923725 5.112239 12,675 228 330 -2944
2018-02-22 20:01:54 GMT 42.929543 5.120937 12,925 221 331 -3008
2018-02-22 20:01:49 GMT 42.935211 5.127422 13,150 212 332 -3264
2018-02-22 20:01:43 GMT 42.942307 5.133426 13,400 206 333 -3264
2018-02-22 20:01:38 GMT 42.949421 5.137809 13,625 197 334 -3264
2018-02-22 20:01:33 GMT 42.957195 5.141144 13,875 190 335 -2944
2018-02-22 20:01:28 GMT 42.965057 5.142879 14,100 183 337 -2496
2018-02-22 20:01:22 GMT 42.974277 5.143367 14,300 182 339 -1664
2018-02-22 20:01:18 GMT 42.981403 5.143563 14,425 186 342 -1344
2018-02-22 20:01:12 GMT 42.990852 5.145067 14,625 193 347 -1472
2018-02-22 20:01:07 GMT 42.998657 5.147478 14,800 199 350 -2048
2018-02-22 20:01:01 GMT 43.007217 5.151566 15,025 201 353 -2432
2018-02-22 20:00:57 GMT 43.014130 5.155207 15,225 202 353 -3008
2018-02-22 20:00:51 GMT 43.023010 5.159806 15,525 202 353 -3264
2018-02-22 20:00:46 GMT 43.030842 5.163967 15,825 201 353 -3264
2018-02-22 20:00:40 GMT 43.039810 5.168620 16,150 201 352 -3136
2018-02-22 20:00:35 GMT 43.047867 5.172836 16,375 201 353 -2816
2018-02-22 20:00:30 GMT 43.054813 5.176457 16,650 201 353 -2688
2018-02-22 20:00:25 GMT 43.062469 5.180437 16,875 201 355 -2560
2018-02-22 20:00:20 GMT 43.070755 5.184717 17,100 201 357 -2304
2018-02-22 20:00:14 GMT 43.080139 5.189571 17,350 201 359 -2176
2018-02-22 20:00:09 GMT 43.087555 5.193403 17,525 201 362 -2048
2018-02-22 20:00:04 GMT 43.094421 5.196980 17,675 201 364 -2176
2018-02-22 19:59:58 GMT 43.104206 5.202026 17,900 201 368 -2112
2018-02-22 19:59:54 GMT 43.111130 5.205667 18,075 201 371 -1856
2018-02-22 19:59:51 GMT 43.115112 5.207711 18,150 201 372 -1792
2018-02-22 19:59:48 GMT 43.120686 5.210658 18,250 202 373 -1920
2018-02-22 19:59:44 GMT 43.127335 5.214162 18,400 202 374 -2304
2018-02-22 19:59:37 GMT 43.138142 5.219814 18,650 202 375 -2176
2018-02-22 19:59:33 GMT 43.144615 5.223214 18,900 202 376 -2048
2018-02-22 19:59:30 GMT 43.148987 5.225532 18,900 202 376 -2048
2018-02-22 19:59:27 GMT 43.154800 5.228598 19,025 201 377 -2176
2018-02-22 19:59:23 GMT 43.161049 5.231912 19,175 201 377 -2240
2018-02-22 19:59:16 GMT 43.171967 5.237604 19,425 202 378 -2240
2018-02-22 19:59:12 GMT 43.178879 5.241245 19,575 202 379 -2176
2018-02-22 19:59:06 GMT 43.189304 5.246756 19,825 201 380 -2176
2018-02-22 19:58:59 GMT 43.200760 5.252806 20,100 201 380 -2368
2018-02-22 19:58:56 GMT 43.205875 5.255454 20,225 201 380 -2496
2018-02-22 19:58:50 GMT 43.214813 5.260152 20,450 201 380 -2816
2018-02-22 19:58:45 GMT 43.223877 5.264942 20,725 202 379 -2688
2018-02-22 19:58:40 GMT 43.231995 5.269187 20,950 202 379 -2304
2018-02-22 19:58:35 GMT 43.240604 5.273699 21,150 201 380 -2368
2018-02-22 19:58:30 GMT 43.248611 5.277884 21,375 201 380 -2496
2018-02-22 19:58:24 GMT 43.257889 5.282827 21,625 202 379 -2560
2018-02-22 19:58:19 GMT 43.266953 5.287628 21,875 202 379 -2432
2018-02-22 19:58:13 GMT 43.275658 5.292271 22,075 202 380 -2176
2018-02-22 19:58:08 GMT 43.283993 5.296718 22,275 202 382 -1984
2018-02-22 19:58:03 GMT 43.292603 5.301296 22,450 202 383 -2048
2018-02-22 19:57:58 GMT 43.300194 5.305350 22,600 202 384 -2240
2018-02-22 19:57:52 GMT 43.310715 5.310995 22,875 202 384 -2368
2018-02-22 19:57:48 GMT 43.318535 5.315159 23,025 202 385 -1792
2018-02-22 19:57:42 GMT 43.328030 5.320260 23,200 202 390 -768
2018-02-22 19:57:37 GMT 43.334965 5.323988 23,250 203 395 -832
2018-02-22 19:57:31 GMT 43.345440 5.329939 23,375 206 400 -832
2018-02-22 19:57:28 GMT 43.351318 5.333735 23,425 209 404 -768
2018-02-22 19:57:21 GMT 43.363178 5.342494 23,525 212 410 -768
2018-02-22 19:57:17 GMT 43.368298 5.346745 23,575 214 413 -768
2018-02-22 19:57:10 GMT 43.379658 5.357470 23,700 218 419 -1088
2018-02-22 19:57:06 GMT 43.385567 5.363748 23,800 221 422 -1408
2018-02-22 19:56:59 GMT 43.395813 5.376083 24,000 225 426 -1984
2018-02-22 19:56:56 GMT 43.399979 5.381640 24,100 227 427 -2304
2018-02-22 19:56:49 GMT 43.409870 5.396576 24,475 232 426 -2688
2018-02-22 19:56:46 GMT 43.413712 5.403166 24,625 234 427 -2688
2018-02-22 19:56:36 GMT 43.424767 5.425284 25,325 242 426 -2432
2018-02-22 19:56:32 GMT 43.428581 5.434374 25,325 242 426 -2432
2018-02-22 19:56:28 GMT 43.432434 5.444556 25,475 245 428 -1664
2018-02-22 19:56:25 GMT 43.435043 5.451965 25,575 247 430 -1536
2018-02-22 19:56:15 GMT 43.442734 5.478777 25,975 254 430 -3136
2018-02-22 19:56:07 GMT 43.446644 5.498265 26,675 262 423 -3776
2018-02-22 19:56:03 GMT 43.448368 5.510363 26,675 262 423 -3776
2018-02-22 19:55:56 GMT 43.450134 5.529262 27,300 268 420 -3008
2018-02-22 19:55:53 GMT 43.450470 5.535257 27,350 268 420 -3008
2018-02-22 19:55:46 GMT 43.450836 5.554611 27,700 273 420 -1920
2018-02-22 19:55:43 GMT 43.450649 5.563006 27,825 275 421 -1664
2018-02-22 19:55:33 GMT 43.448456 5.592105 28,150 281 425 -1536
2018-02-22 19:55:25 GMT 43.445713 5.610482 28,625 288 430 -1600
2018-02-22 19:55:22 GMT 43.444016 5.619251 28,450 288 430 -1600
2018-02-22 19:55:12 GMT 43.437241 5.645823 28,750 295 435 -1216
2018-02-22 19:55:04 GMT 43.431004 5.664498 28,900 299 441 -1152
2018-02-22 19:55:01 GMT 43.428085 5.672139 28,975 300 443 -1152
2018-02-22 19:54:52 GMT 43.417648 5.695389 29,225 307 448 -2240
2018-02-22 19:54:49 GMT 43.414616 5.701316 29,300 309 447 -2816
2018-02-22 19:54:42 GMT 43.406284 5.715572 29,650 314 444 -4544
2018-02-22 19:54:38 GMT 43.400482 5.724005 29,975 317 441 -5056
2018-02-22 19:54:32 GMT 43.392223 5.734602 30,550 322 436 -3840
2018-02-22 19:54:29 GMT 43.386337 5.741378 31,025 327 437 -2048
2018-02-22 19:54:22 GMT 43.375717 5.752301 31,050 327 437 -2048
2018-02-22 19:54:18 GMT 43.364731 5.762010 31,275 331 440 -1088
2018-02-22 19:54:09 GMT 43.350861 5.772485 31,400 336 448 -1152
2018-02-22 19:54:05 GMT 43.342300 5.777914 31,475 338 451 -1984
2018-02-22 19:54:00 GMT 43.336735 5.781097 31,600 340 452 -2816
2018-02-22 19:53:57 GMT 43.330215 5.784493 31,775 343 452 -3840
2018-02-22 19:53:54 GMT 43.321838 5.788134 32,025 347 449 -4544
2018-02-22 19:53:50 GMT 43.315556 5.790449 32,250 349 448 -4736
2018-02-22 19:53:47 GMT 43.309547 5.792280 32,475 351 447 -4672
2018-02-22 19:53:40 GMT 43.295334 5.795288 33,075 357 444 -3200
2018-02-22 19:53:37 GMT 43.287342 5.796334 33,225 358 444 -2880
2018-02-22 19:53:30 GMT 43.274681 5.797054 33,500 0 446 -2368
2018-02-22 19:53:26 GMT 43.266907 5.796923 33,700 3 448 -2240
2018-02-22 19:53:22 GMT 43.258247 5.796334 33,800 7 449 -2688
2018-02-22 19:53:19 GMT 43.252102 5.795550 33,975 11 449 -3776
2018-02-22 19:53:16 GMT 43.244339 5.794138 34,100 11 449 -3776
2018-02-22 19:53:13 GMT 43.238480 5.792605 34,250 14 447 -4160
2018-02-22 19:53:08 GMT 43.226315 5.788618 34,575 18 447 -3264
2018-02-22 19:53:04 GMT 43.223099 5.787304 34,725 17 446 -3392
2018-02-22 19:53:01 GMT 43.215775 5.784110 35,050 35 454 -1920
2018-02-22 19:52:58 GMT 43.210533 5.781490 35,525 25 449 -2240
2018-02-22 19:52:55 GMT 43.201950 5.776765 35,250 25 449 -2240
2018-02-22 19:52:48 GMT 43.191074 5.769523 35,525 35 454 -1920
2018-02-22 19:52:43 GMT 43.182972 5.763441 35,550 32 453 -1792
2018-02-22 19:52:37 GMT 43.172470 5.754281 35,800 41 454 -704
2018-02-22 19:52:33 GMT 43.165649 5.747510 35,900 38 453 -1664
2018-02-22 19:52:28 GMT 43.155670 5.736780 35,950 40 453 -896
2018-02-22 19:52:24 GMT 43.150040 5.730137 36,000 42 454 -128
2018-02-22 19:52:21 GMT 43.146290 5.725512 36,025 42 454 64
2018-02-22 19:52:16 GMT 43.138004 5.715049 36,025 42 454 64
2018-02-22 19:52:12 GMT 43.130836 5.706024 36,025 42 455 64
2018-02-22 19:52:09 GMT 43.127342 5.701643 36,025 42 455 64
2018-02-22 19:52:05 GMT 43.120686 5.693338 36,025 42 455 0
2018-02-22 19:52:01 GMT 43.114334 5.685361 36,000 42 455 0
2018-02-22 19:51:58 GMT 43.109711 5.679548 36,000 42 454 0
2018-02-22 19:51:55 GMT 43.106441 5.675419 36,000 42 454 0
2018-02-22 19:51:50 GMT 43.098312 5.665241 36,000 42 454 -64
2018-02-22 19:51:47 GMT 43.092773 5.658342 36,000 42 454 -64
2018-02-22 19:51:44 GMT 43.088013 5.652338 36,000 42 453 0
2018-02-22 19:51:40 GMT 43.081833 5.644545 36,025 42 453 0
2018-02-22 19:51:37 GMT 43.076065 5.637328 36,025 42 453 0
2018-02-22 19:51:34 GMT 43.073639 5.634326 36,025 42 453 0
2018-02-22 19:51:29 GMT 43.066223 5.625000 36,025 42 453 0
2018-02-22 19:51:26 GMT 43.060684 5.618102 36,025 42 453 0
2018-02-22 19:51:23 GMT 43.056564 5.612928 36,025 42 454 0
2018-02-22 19:51:20 GMT 43.049240 5.603794 36,025 42 453 0
2018-02-22 19:51:16 GMT 43.044708 5.598109 36,025 42 453 64
2018-02-22 19:51:12 GMT 43.039780 5.591976 36,025 42 453 0
2018-02-22 19:51:08 GMT 43.032143 5.582493 36,000 42 453 0
2018-02-22 19:51:05 GMT 43.027908 5.577262 36,000 42 453 0
2018-02-22 19:51:02 GMT 43.023056 5.571282 36,000 42 453 0
2018-02-22 19:50:58 GMT 43.017620 5.564510 36,000 42 452 0
2018-02-22 19:50:55 GMT 43.012756 5.558443 36,000 42 452 0
2018-02-22 19:50:51 GMT 43.007034 5.551353 36,000 42 452 0
2018-02-22 19:50:45 GMT 42.997513 5.539409 36,000 42 452 0
2018-02-22 19:50:42 GMT 42.990665 5.530831 36,000 42 452 0
2018-02-22 19:50:35 GMT 42.981674 5.519480 36,000 42 452 64
2018-02-22 19:50:30 GMT 42.974625 5.510538 36,000 42 452 64
2018-02-22 19:50:27 GMT 42.969482 5.504085 36,000 42 452 0
2018-02-22 19:50:23 GMT 42.964005 5.497124 36,000 42 452 0
2018-02-22 19:50:20 GMT 42.957752 5.489240 36,000 42 452 0
2018-02-22 19:50:16 GMT 42.953201 5.483583 36,000 42 452 0
2018-02-22 19:50:13 GMT 42.948769 5.477992 36,000 42 451 0
2018-02-22 19:50:10 GMT 42.943451 5.471319 36,000 42 451 0
2018-02-22 19:50:06 GMT 42.936386 5.462429 36,000 42 450 64
2018-02-22 19:50:03 GMT 42.932430 5.457458 36,000 42 451 0
2018-02-22 19:50:00 GMT 42.927750 5.451582 36,000 42 450 64
2018-02-22 19:49:53 GMT 42.916973 5.438102 36,000 42 450 64
2018-02-22 19:49:50 GMT 42.911575 5.431366 36,000 42 450 64
2018-02-22 19:49:46 GMT 42.905243 5.423519 36,000 42 450 0
2018-02-22 19:49:42 GMT 42.897049 5.413382 36,000 42 450 0
2018-02-22 19:49:38 GMT 42.894676 5.410505 36,000 42 450 0
2018-02-22 19:49:34 GMT 42.887466 5.401633 36,000 42 450 0
2018-02-22 19:49:31 GMT 42.881126 5.393829 36,000 42 450 0
2018-02-22 19:49:28 GMT 42.878723 5.390838 36,000 42 449 0
2018-02-22 19:49:23 GMT 42.870468 5.380620 36,000 42 449 0
2018-02-22 19:49:18 GMT 42.863625 5.372118 36,000 42 449 0
2018-02-22 19:49:12 GMT 42.854965 5.361392 36,000 42 449 0
2018-02-22 19:49:08 GMT 42.848309 5.353088 36,000 42 449 0
2018-02-22 19:49:05 GMT 42.842628 5.346026 36,000 42 448 64
2018-02-22 19:49:02 GMT 42.838898 5.341399 36,000 42 448 64
2018-02-22 19:48:57 GMT 42.831848 5.332585 36,000 42 448 64
2018-02-22 19:48:54 GMT 42.826309 5.325750 36,000 42 449 64
2018-02-22 19:48:51 GMT 42.820999 5.319171 36,000 42 449 64
2018-02-22 19:48:47 GMT 42.816002 5.312936 36,000 42 449 0
2018-02-22 19:48:41 GMT 42.806992 5.301777 35,975 42 448 0
2018-02-22 19:48:37 GMT 42.799210 5.292102 35,975 42 448 0
2018-02-22 19:48:33 GMT 42.794216 5.285893 35,975 42 448 0
2018-02-22 19:48:30 GMT 42.788956 5.279378 35,975 42 448 0
2018-02-22 19:48:26 GMT 42.783554 5.272626 35,975 42 448 0
2018-02-22 19:48:21 GMT 42.775826 5.263154 35,975 42 448 0
2018-02-22 19:48:18 GMT 42.770706 5.256830 35,975 42 448 0
2018-02-22 19:48:15 GMT 42.766655 5.251784 35,975 42 448 0
2018-02-22 19:48:10 GMT 42.759705 5.243225 35,975 42 448 0
2018-02-22 19:48:07 GMT 42.755035 5.237482 35,975 42 448 0
2018-02-22 19:48:04 GMT 42.750549 5.231927 35,975 42 448 0
2018-02-22 19:48:00 GMT 42.743195 5.222849 35,975 42 448 0
2018-02-22 19:47:57 GMT 42.739098 5.217803 36,000 42 447 0
2018-02-22 19:47:54 GMT 42.735123 5.212888 35,975 42 447 0
2018-02-22 19:47:50 GMT 42.726437 5.202218 35,975 42 448 0
2018-02-22 19:47:47 GMT 42.723724 5.198780 35,975 42 448 0
2018-02-22 19:47:44 GMT 42.718895 5.192892 35,975 42 448 0
2018-02-22 19:47:40 GMT 42.712692 5.185235 35,975 42 448 0
2018-02-22 19:47:36 GMT 42.706650 5.177818 35,975 42 448 0
2018-02-22 19:47:33 GMT 42.702972 5.173347 35,975 42 448 0
2018-02-22 19:47:27 GMT 42.691242 5.158911 35,975 42 448 0
2018-02-22 19:47:23 GMT 42.686634 5.153227 35,975 42 448 0
2018-02-22 19:47:18 GMT 42.676987 5.141414 35,975 42 448 0
2018-02-22 19:47:15 GMT 42.674156 5.137961 35,975 42 448 0
2018-02-22 19:47:12 GMT 42.669643 5.132404 35,975 42 448 0
2018-02-22 19:47:09 GMT 42.664764 5.126371 35,975 42 448 0
2018-02-22 19:47:05 GMT 42.658630 5.118880 35,975 42 448 0
2018-02-22 19:47:01 GMT 42.651947 5.110703 35,975 42 448 0
2018-02-22 19:46:58 GMT 42.648880 5.106957 35,975 42 448 0
2018-02-22 19:46:55 GMT 42.643387 5.100216 35,975 42 448 0
2018-02-22 19:46:51 GMT 42.635937 5.091077 35,975 42 448 0
2018-02-22 19:46:48 GMT 42.633133 5.087606 35,975 42 448 0
2018-02-22 19:46:45 GMT 42.627651 5.080857 35,975 42 448 0
2018-02-22 19:46:41 GMT 42.622112 5.074023 35,975 42 448 0
2018-02-22 19:46:38 GMT 42.617386 5.068193 35,975 42 448 0
2018-02-22 19:46:32 GMT 42.609077 5.057990 35,975 42 448 0
2018-02-22 19:46:29 GMT 42.603745 5.051464 35,975 42 448 -64
2018-02-22 19:46:25 GMT 42.596146 5.042038 36,000 42 449 -64
2018-02-22 19:46:22 GMT 42.593109 5.038317 36,000 42 449 -64
2018-02-22 19:46:18 GMT 42.586311 5.030014 36,000 42 448 -64
2018-02-22 19:46:14 GMT 42.580029 5.022285 36,000 42 448 -64
2018-02-22 19:46:11 GMT 42.575512 5.016792 36,000 42 448 0
2018-02-22 19:46:07 GMT 42.569366 5.009255 36,000 42 448 0
2018-02-22 19:46:02 GMT 42.560898 4.998842 36,000 42 449 0
2018-02-22 19:45:57 GMT 42.554798 4.991434 36,000 42 449 0
2018-02-22 19:45:51 GMT 42.544922 4.979304 36,000 42 450 0
2018-02-22 19:45:47 GMT 42.538467 4.971438 36,000 42 450 0
2018-02-22 19:45:40 GMT 42.524368 4.954147 36,000 42 450 0
2018-02-22 19:45:36 GMT 42.522125 4.951463 36,000 42 450 0
2018-02-22 19:45:32 GMT 42.515041 4.942762 36,000 42 450 0
2018-02-22 19:45:29 GMT 42.509628 4.936107 36,000 42 451 0
2018-02-22 19:45:26 GMT 42.506653 4.932424 36,000 42 451 0
2018-02-22 19:45:22 GMT 42.499741 4.924060 36,000 42 451 0
2018-02-22 19:45:18 GMT 42.494247 4.917256 36,000 42 451 0
2018-02-22 19:45:15 GMT 42.490219 4.912324 36,000 42 451 64
2018-02-22 19:45:11 GMT 42.483757 4.904437 36,000 42 452 64
2018-02-22 19:45:08 GMT 42.478405 4.897922 36,000 42 451 0
2018-02-22 19:45:05 GMT 42.474586 4.893259 36,000 42 451 0
2018-02-22 19:45:01 GMT 42.468521 4.885857 36,000 42 452 0
2018-02-22 19:44:58 GMT 42.463440 4.879678 36,000 42 452 0
2018-02-22 19:44:55 GMT 42.459091 4.874372 36,000 42 452 0
2018-02-22 19:44:52 GMT 42.451492 4.865008 36,000 42 452 0
2018-02-22 19:44:48 GMT 42.446640 4.859078 36,000 42 451 0
2018-02-22 19:44:45 GMT 42.442795 4.854334 36,000 42 451 0
2018-02-22 19:44:41 GMT 42.436417 4.846504 36,000 42 451 0
2018-02-22 19:44:38 GMT 42.431572 4.840563 35,975 42 451 0
2018-02-22 19:44:34 GMT 42.425381 4.833026 36,000 42 451 0
2018-02-22 19:44:31 GMT 42.420410 4.827055 36,000 42 451 0
2018-02-22 19:44:27 GMT 42.415512 4.821063 35,975 42 451 -64
2018-02-22 19:44:24 GMT 42.410522 4.815008 36,000 42 451 0
2018-02-22 19:44:21 GMT 42.404343 4.807455 36,000 42 451 0
2018-02-22 19:44:18 GMT 42.399315 4.801345 36,000 41 450 0
2018-02-22 19:44:12 GMT 42.391388 4.791787 36,000 41 450 64
2018-02-22 19:44:09 GMT 42.386974 4.786398 36,000 41 450 64
2018-02-22 19:44:06 GMT 42.382973 4.781544 36,000 41 450 64
2018-02-22 19:44:03 GMT 42.377388 4.774773 36,000 41 451 128
2018-02-22 19:43:59 GMT 42.371384 4.767505 35,975 41 451 128
2018-02-22 19:43:56 GMT 42.366539 4.761679 35,975 41 452 128
2018-02-22 19:43:52 GMT 42.360443 4.754333 35,975 41 452 192
2018-02-22 19:43:48 GMT 42.354111 4.746669 35,950 42 453 448
2018-02-22 19:43:45 GMT 42.350327 4.742099 35,900 42 453 704
2018-02-22 19:43:42 GMT 42.345016 4.735607 35,900 42 453 1024
2018-02-22 19:43:37 GMT 42.336842 4.725654 35,825 42 453 960
2018-02-22 19:43:31 GMT 42.328365 4.715306 35,750 42 453 576
2018-02-22 19:43:26 GMT 42.319565 4.704583 35,675 42 450 384
2018-02-22 19:43:21 GMT 42.312401 4.695825 35,150 41 447 768
2018-02-22 19:43:18 GMT 42.305969 4.687979 35,625 42 448 832
2018-02-22 19:43:15 GMT 42.302811 4.684136 35,600 42 448 1280
2018-02-22 19:43:12 GMT 42.298782 4.679239 35,575 42 448 1536
2018-02-22 19:43:06 GMT 42.289536 4.667941 35,350 42 450 1088
2018-02-22 19:43:03 GMT 42.282990 4.660013 35,350 42 450 1088
2018-02-22 19:43:00 GMT 42.279861 4.656223 35,300 42 449 640
2018-02-22 19:42:55 GMT 42.272461 4.647217 35,225 41 448 512
2018-02-22 19:42:52 GMT 42.267525 4.641277 35,200 42 448 576
2018-02-22 19:42:45 GMT 42.256989 4.628490 35,100 42 446 1024
2018-02-22 19:42:42 GMT 42.251648 4.621987 35,075 42 446 1024
2018-02-22 19:42:39 GMT 42.247601 4.617132 35,050 42 446 960
2018-02-22 19:42:35 GMT 42.240967 4.609077 34,950 42 446 960
2018-02-22 19:42:31 GMT 42.235867 4.602888 34,900 42 446 960
2018-02-22 19:42:25 GMT 42.225628 4.590561 34,800 42 446 960
2018-02-22 19:42:21 GMT 42.220039 4.583790 34,750 42 446 832
2018-02-22 19:42:14 GMT 42.208694 4.570000 34,650 41 443 448
2018-02-22 19:42:11 GMT 42.203979 4.564308 34,625 41 443 448
2018-02-22 19:42:06 GMT 42.197601 4.556516 34,600 41 443 576
2018-02-22 19:42:03 GMT 42.192249 4.550064 34,575 41 441 960
2018-02-22 19:42:00 GMT 42.188553 4.545656 34,550 41 441 960
2018-02-22 19:41:53 GMT 42.176468 4.531094 34,375 41 441 1408
2018-02-22 19:41:50 GMT 42.172440 4.526242 34,325 41 441 1344
2018-02-22 19:41:43 GMT 42.160858 4.512385 34,175 41 441 1216
2018-02-22 19:41:40 GMT 42.157288 4.508099 34,125 41 441 1216
2018-02-22 19:41:35 GMT 42.149094 4.498277 34,025 41 441 1088
2018-02-22 19:41:32 GMT 42.143509 4.491556 33,975 42 441 1088
2018-02-22 19:41:29 GMT 42.140388 4.487787 33,925 42 442 1088
2018-02-22 19:41:22 GMT 42.129089 4.473558 33,775 44 441 1152
2018-02-22 19:41:19 GMT 42.126099 4.469647 33,750 45 442 1088
2018-02-22 19:41:12 GMT 42.115814 4.455705 33,600 47 442 832
2018-02-22 19:41:09 GMT 42.111145 4.449026 33,575 47 441 832
2018-02-22 19:41:02 GMT 42.101425 4.434644 33,425 49 441 1600
2018-02-22 19:40:59 GMT 42.097282 4.428257 33,375 49 442 1600
2018-02-22 19:40:51 GMT 42.086155 4.410436 33,150 51 444 1984
2018-02-22 19:40:48 GMT 42.082855 4.404956 33,075 51 444 2304
2018-02-22 19:40:42 GMT 42.074432 4.390474 32,800 53 448 2368
2018-02-22 19:40:38 GMT 42.070908 4.384107 32,675 53 449 2176
2018-02-22 19:40:31 GMT 42.061668 4.366874 32,425 55 452 1536
2018-02-22 19:40:28 GMT 42.058178 4.360039 32,350 56 453 1536
2018-02-22 19:40:20 GMT 42.047974 4.339225 32,125 58 454 1088
2018-02-22 19:40:16 GMT 42.044586 4.331922 32,075 59 455 960
2018-02-22 19:40:10 GMT 42.038906 4.319160 31,950 60 454 960
2018-02-22 19:40:07 GMT 42.035507 4.311303 31,925 60 454 960
2018-02-22 19:39:58 GMT 42.025772 4.288538 31,725 60 453 768
2018-02-22 19:39:54 GMT 42.021515 4.278613 31,725 60 453 768
2018-02-22 19:39:48 GMT 42.015747 4.265192 31,625 60 450 640
2018-02-22 19:39:45 GMT 42.012314 4.257077 31,625 60 450 640
2018-02-22 19:39:38 GMT 42.004971 4.239892 31,550 60 447 1216
2018-02-22 19:39:28 GMT 41.994232 4.214693 31,300 60 449 1728
2018-02-22 19:39:22 GMT 41.988464 4.201272 31,125 60 450 1664
2018-02-22 19:39:18 GMT 41.983383 4.189287 31,000 60 450 1600
2018-02-22 19:39:15 GMT 41.981552 4.185025 30,950 60 450 1600
2018-02-22 19:39:09 GMT 41.973171 4.165415 30,750 60 451 1664
2018-02-22 19:39:05 GMT 41.971115 4.160635 30,675 60 452 1600
2018-02-22 19:38:58 GMT 41.963516 4.142907 30,425 60 452 1344
2018-02-22 19:38:54 GMT 41.959717 4.133980 30,375 60 453 1280
2018-02-22 19:38:48 GMT 41.952785 4.117765 30,250 60 452 1344
2018-02-22 19:38:44 GMT 41.949013 4.108951 30,175 60 453 1152
2018-02-22 19:38:38 GMT 41.941334 4.091130 30,050 60 451 448
2018-02-22 19:38:34 GMT 41.938614 4.084729 30,025 60 451 192
2018-02-22 19:38:28 GMT 41.931976 4.069285 30,000 60 451 0
2018-02-22 19:38:25 GMT 41.929508 4.063536 30,000 60 451 0
2018-02-22 19:38:19 GMT 41.922089 4.046215 30,000 60 451 0
2018-02-22 19:38:16 GMT 41.918655 4.038287 30,000 60 451 0
2018-02-22 19:38:07 GMT 41.909088 4.016002 30,000 60 451 0
2018-02-22 19:38:03 GMT 41.905792 4.008324 30,000 60 451 0
2018-02-22 19:37:58 GMT 41.900272 3.995510 30,000 59 449 0
2018-02-22 19:37:55 GMT 41.897667 3.989506 30,000 59 449 0
2018-02-22 19:37:52 GMT 41.894825 3.982927 30,000 59 449 0
2018-02-22 19:37:47 GMT 41.888992 3.969435 30,000 59 448 0
2018-02-22 19:37:44 GMT 41.886398 3.963509 30,000 60 448 0
2018-02-22 19:37:41 GMT 41.883316 3.956327 30,000 60 448 0
2018-02-22 19:37:37 GMT 41.878189 3.944404 30,000 60 448 0
2018-02-22 19:37:34 GMT 41.875580 3.938411 30,000 60 448 0
2018-02-22 19:37:31 GMT 41.872879 3.932169 30,000 60 448 0
2018-02-22 19:37:27 GMT 41.868290 3.921544 30,000 60 450 0
2018-02-22 19:37:24 GMT 41.865173 3.914263 30,000 60 450 0
2018-02-22 19:37:20 GMT 41.861076 3.904809 30,000 60 450 0
2018-02-22 19:37:16 GMT 41.856857 3.895028 30,000 59 451 0
2018-02-22 19:37:13 GMT 41.854111 3.888723 30,000 59 451 0
2018-02-22 19:37:10 GMT 41.850861 3.881233 30,000 59 451 0
2018-02-22 19:37:06 GMT 41.845825 3.869497 30,000 59 450 0
2018-02-22 19:37:03 GMT 41.843620 3.864377 30,000 59 450 0
2018-02-22 19:36:57 GMT 41.836033 3.847003 30,000 59 449 0
2018-02-22 19:36:54 GMT 41.833611 3.841382 30,000 59 449 0
2018-02-22 19:36:51 GMT 41.830116 3.833398 30,000 59 449 0
2018-02-22 19:36:45 GMT 41.822617 3.816126 30,000 59 447 0
2018-02-22 19:36:42 GMT 41.821472 3.813567 30,000 59 447 0
2018-02-22 19:36:36 GMT 41.815018 3.798710 30,000 59 447 0
2018-02-22 19:36:32 GMT 41.811031 3.789453 30,000 59 447 0
2018-02-22 19:36:25 GMT 41.804169 3.773616 30,000 60 448 64
2018-02-22 19:36:22 GMT 41.800644 3.765564 30,000 60 448 64
2018-02-22 19:36:13 GMT 41.789665 3.740142 29,975 59 451 128
2018-02-22 19:36:10 GMT 41.788193 3.736725 29,975 59 452 448
2018-02-22 19:36:04 GMT 41.782078 3.722641 29,950 59 452 320
2018-02-22 19:36:01 GMT 41.778957 3.715551 29,950 59 452 512
2018-02-22 19:35:55 GMT 41.772354 3.700395 29,875 59 451 960
2018-02-22 19:35:51 GMT 41.767776 3.689908 29,775 59 449 1408
2018-02-22 19:35:43 GMT 41.760151 3.672436 29,700 59 449 896
2018-02-22 19:35:40 GMT 41.755829 3.662442 29,650 59 449 896
2018-02-22 19:35:35 GMT 41.750237 3.649633 29,550 59 449 896
2018-02-22 19:35:31 GMT 41.746536 3.641219 29,500 59 447 960
2018-02-22 19:35:23 GMT 41.739201 3.624339 29,375 59 446 1152
2018-02-22 19:35:20 GMT 41.735458 3.615813 29,325 59 446 1344
2018-02-22 19:35:13 GMT 41.728271 3.599396 29,125 59 446 1664
2018-02-22 19:35:10 GMT 41.724838 3.591468 29,000 59 447 1792
2018-02-22 19:35:03 GMT 41.718254 3.576433 28,875 59 448 1728
2018-02-22 19:35:00 GMT 41.714809 3.568449 28,750 59 448 1536
2018-02-22 19:34:57 GMT 41.711597 3.561039 28,675 59 448 1536
2018-02-22 19:34:54 GMT 41.707214 3.551018 28,575 59 449 1344
2018-02-22 19:34:50 GMT 41.704056 3.543793 28,500 59 449 1472
2018-02-22 19:34:47 GMT 41.701820 3.538747 28,450 59 449 1600
2018-02-22 19:34:41 GMT 41.694698 3.522396 28,150 59 450 2112
2018-02-22 19:34:38 GMT 41.691532 3.515114 28,125 59 451 1792
2018-02-22 19:34:33 GMT 41.686249 3.503078 27,975 59 452 1344
2018-02-22 19:34:30 GMT 41.682312 3.494089 27,875 59 451 1152
2018-02-22 19:34:26 GMT 41.679661 3.487968 27,825 59 450 896
2018-02-22 19:34:22 GMT 41.674622 3.476486 27,725 59 450 960
2018-02-22 19:34:19 GMT 41.670631 3.467464 27,675 59 450 832
2018-02-22 19:34:13 GMT 41.664623 3.453731 27,575 59 449 1216
2018-02-22 19:34:09 GMT 41.661026 3.445462 27,500 59 449 1472
2018-02-22 19:34:06 GMT 41.658646 3.440094 27,450 59 448 1536
2018-02-22 19:34:02 GMT 41.654102 3.429651 27,350 59 449 1344
2018-02-22 19:33:59 GMT 41.650772 3.421929 27,275 59 449 1344
2018-02-22 19:33:56 GMT 41.647476 3.414501 27,200 59 448 1408
2018-02-22 19:33:52 GMT 41.642700 3.403654 27,075 59 448 1280
2018-02-22 19:33:47 GMT 41.638321 3.393652 27,000 59 448 1216
2018-02-22 19:33:36 GMT 41.622299 3.357322 26,650 59 447 1152
2018-02-22 19:33:32 GMT 41.620773 3.353832 26,650 59 447 1088
2018-02-22 19:33:27 GMT 41.617264 3.345836 26,525 59 446 1024
2018-02-22 19:33:24 GMT 41.613976 3.338439 26,525 59 446 1024
2018-02-22 19:33:21 GMT 41.609924 3.329177 26,450 59 445 1152
2018-02-22 19:33:17 GMT 41.605179 3.318308 26,375 59 445 1408
2018-02-22 19:33:11 GMT 41.599964 3.306502 26,175 59 445 1792
2018-02-22 19:33:07 GMT 41.595867 3.297240 26,000 59 446 1344
2018-02-22 19:33:04 GMT 41.592224 3.289032 26,000 59 446 1344
2018-02-22 19:32:59 GMT 41.588001 3.279419 25,900 59 445 896
2018-02-22 19:32:55 GMT 41.583664 3.269556 25,725 59 443 1024
2018-02-22 19:32:52 GMT 41.580692 3.262812 25,725 59 443 1024
2018-02-22 19:32:49 GMT 41.576340 3.253014 25,725 59 443 1088
2018-02-22 19:32:44 GMT 41.571442 3.242028 25,625 59 443 1152
2018-02-22 19:32:40 GMT 41.567799 3.233685 25,550 59 441 1280
2018-02-22 19:32:37 GMT 41.565399 3.228295 25,500 59 441 1280
2018-02-22 19:32:34 GMT 41.561920 3.220430 25,450 59 441 1216
2018-02-22 19:32:28 GMT 41.553772 3.201953 25,250 59 441 1536
2018-02-22 19:32:23 GMT 41.549652 3.192527 25,150 59 441 1664
2018-02-22 19:32:20 GMT 41.546997 3.186472 25,075 59 441 1664
2018-02-22 19:32:17 GMT 41.542984 3.177412 24,950 59 441 1664
2018-02-22 19:32:13 GMT 41.539913 3.170450 24,850 59 443 1728
2018-02-22 19:32:10 GMT 41.536102 3.161878 24,750 59 443 1728
2018-02-22 19:32:05 GMT 41.530975 3.150330 24,600 59 443 1472
2018-02-22 19:32:02 GMT 41.529007 3.145835 24,450 59 443 1664
2018-02-22 19:31:59 GMT 41.525200 3.137299 24,475 59 443 1664
2018-02-22 19:31:54 GMT 41.520081 3.125738 24,325 59 443 1792
2018-02-22 19:31:49 GMT 41.514587 3.113283 24,150 59 444 1664
2018-02-22 19:31:41 GMT 41.505432 3.092651 23,925 59 444 1152
2018-02-22 19:31:38 GMT 41.502625 3.086328 23,875 59 444 1152
2018-02-22 19:31:34 GMT 41.498295 3.076555 23,800 59 443 1216
2018-02-22 19:31:28 GMT 41.491699 3.061752 23,650 59 442 1216
2018-02-22 19:31:23 GMT 41.487900 3.053263 23,575 59 442 1216
2018-02-22 19:31:20 GMT 41.484329 3.045210 23,500 59 441 1152
2018-02-22 19:31:17 GMT 41.481209 3.038103 23,450 59 441 1152
2018-02-22 19:31:13 GMT 41.477005 3.028668 23,375 59 440 1216
2018-02-22 19:31:07 GMT 41.470322 3.013562 23,225 59 439 1408
2018-02-22 19:31:02 GMT 41.466202 3.004386 23,125 59 438 1408
2018-02-22 19:30:59 GMT 41.462631 2.996271 23,000 59 438 1408
2018-02-22 19:30:56 GMT 41.459515 2.989303 22,975 59 438 1472
2018-02-22 19:30:52 GMT 41.454941 2.979043 22,875 59 438 1664
2018-02-22 19:30:46 GMT 41.448486 2.964436 22,675 59 438 1728
2018-02-22 19:30:42 GMT 41.444870 2.956383 20,975 59 431 1280
2018-02-22 19:30:38 GMT 41.440243 2.945933 22,400 59 438 1792
2018-02-22 19:30:35 GMT 41.436520 2.937629 22,325 59 438 1856
2018-02-22 19:30:31 GMT 41.434341 2.932788 22,275 59 438 1792
2018-02-22 19:30:25 GMT 41.426788 2.915809 22,000 59 438 1856
2018-02-22 19:30:22 GMT 41.423584 2.908755 21,950 59 438 1856
2018-02-22 19:30:16 GMT 41.418411 2.897197 21,775 59 438 1600
2018-02-22 19:30:11 GMT 41.412964 2.884933 21,650 59 438 1344
2018-02-22 19:30:04 GMT 41.404861 2.866870 21,450 59 436 1536
2018-02-22 19:30:01 GMT 41.402664 2.861876 21,400 59 436 1536
2018-02-22 19:29:54 GMT 41.396065 2.847184 21,250 59 434 1344
2018-02-22 19:29:51 GMT 41.391922 2.837858 21,150 59 434 1216
2018-02-22 19:29:43 GMT 41.383591 2.819179 20,975 59 431 1216
2018-02-22 19:29:40 GMT 41.381470 2.814453 20,950 59 430 1280
2018-02-22 19:29:36 GMT 41.376328 2.802949 20,825 59 429 1408
2018-02-22 19:29:33 GMT 41.374191 2.798218 20,775 59 429 1472
2018-02-22 19:29:30 GMT 41.371021 2.791152 20,700 59 428 1536
2018-02-22 19:29:25 GMT 41.365631 2.779114 20,575 59 427 1600
2018-02-22 19:29:22 GMT 41.361374 2.769714 20,450 59 427 1536
2018-02-22 19:29:19 GMT 41.360313 2.767369 20,425 59 426 1536
2018-02-22 19:29:15 GMT 41.355145 2.755821 20,300 59 426 1536
2018-02-22 19:29:10 GMT 41.349609 2.743530 20,150 59 425 1600
2018-02-22 19:29:05 GMT 41.344486 2.732225 20,000 59 423 1728
2018-02-22 19:28:59 GMT 41.339401 2.721008 19,850 59 423 1792
2018-02-22 19:28:54 GMT 41.334412 2.709900 19,700 59 423 1728
2018-02-22 19:28:49 GMT 41.329468 2.698792 19,575 59 421 1600
2018-02-22 19:28:44 GMT 41.324097 2.686781 19,425 59 421 1536
2018-02-22 19:28:38 GMT 41.318882 2.675108 19,275 59 419 1536
2018-02-22 19:28:33 GMT 41.313854 2.663935 19,150 59 418 1600
2018-02-22 19:28:28 GMT 41.307907 2.650696 19,000 59 417 1728
2018-02-22 19:28:24 GMT 41.303787 2.641479 18,850 59 416 1792
2018-02-22 19:28:18 GMT 41.298679 2.630164 18,700 59 415 1920
2018-02-22 19:28:13 GMT 41.293533 2.618774 18,525 59 414 1920
2018-02-22 19:28:07 GMT 41.288086 2.606689 18,350 59 413 1856
2018-02-22 19:28:02 GMT 41.282959 2.595215 18,175 59 412 1856
2018-02-22 19:27:58 GMT 41.276798 2.581662 18,000 59 412 2176
2018-02-22 19:27:55 GMT 41.274628 2.576904 17,900 59 412 2240
2018-02-22 19:27:51 GMT 41.271194 2.569275 17,750 59 412 2240
2018-02-22 19:27:46 GMT 41.267021 2.560002 17,575 59 412 2304
2018-02-22 19:27:42 GMT 41.263458 2.552124 17,300 59 412 2368
2018-02-22 19:27:37 GMT 41.257294 2.538466 17,200 59 412 2432
2018-02-22 19:27:31 GMT 41.252964 2.528853 17,025 59 412 2368
2018-02-22 19:27:25 GMT 41.246449 2.514371 16,700 59 412 2240
2018-02-22 19:27:22 GMT 41.242813 2.506348 16,600 59 412 2240
2018-02-22 19:27:16 GMT 41.237602 2.494833 16,350 59 412 2368
2018-02-22 19:27:13 GMT 41.235168 2.489441 16,300 59 412 2368
2018-02-22 19:27:10 GMT 41.231415 2.481140 16,150 59 412 2368
2018-02-22 19:27:05 GMT 41.226009 2.469115 15,925 59 412 2112
2018-02-22 19:27:01 GMT 41.222706 2.461811 15,800 59 411 1984
2018-02-22 19:26:55 GMT 41.217728 2.450806 15,625 59 410 1856
2018-02-22 19:26:51 GMT 41.212837 2.439964 15,450 58 408 2112
2018-02-22 19:26:44 GMT 41.205460 2.423767 15,150 58 407 2240
2018-02-22 19:26:40 GMT 41.202164 2.416504 15,050 58 407 2176
2018-02-22 19:26:35 GMT 41.197334 2.405881 14,875 59 405 1856
2018-02-22 19:26:32 GMT 41.195297 2.401428 14,750 59 405 1728
2018-02-22 19:26:29 GMT 41.192230 2.394653 14,650 58 403 1472
2018-02-22 19:26:25 GMT 41.187557 2.384345 14,600 59 400 1024
2018-02-22 19:26:20 GMT 41.182159 2.372375 14,500 59 397 1024
2018-02-22 19:26:14 GMT 41.177780 2.362747 14,425 59 392 1024
2018-02-22 19:26:11 GMT 41.175110 2.356812 14,350 59 390 960
2018-02-22 19:26:08 GMT 41.172009 2.349888 14,325 59 387 960
2018-02-22 19:26:04 GMT 41.168152 2.341370 14,250 58 383 896
2018-02-22 19:26:01 GMT 41.165405 2.335266 14,200 58 380 896
2018-02-22 19:25:58 GMT 41.163071 2.330139 14,175 58 378 896
2018-02-22 19:25:54 GMT 41.158836 2.320862 14,100 57 373 1024
2018-02-22 19:25:51 GMT 41.156662 2.316345 14,025 56 370 1216
2018-02-22 19:25:48 GMT 41.153481 2.309751 14,000 55 368 1344
2018-02-22 19:25:42 GMT 41.147102 2.297266 13,850 54 363 2048
2018-02-22 19:25:38 GMT 41.143753 2.291199 13,725 53 360 2688
2018-02-22 19:25:33 GMT 41.137665 2.280273 13,525 53 360 2816
2018-02-22 19:25:30 GMT 41.135281 2.276043 13,375 53 360 3136
2018-02-22 19:25:27 GMT 41.132904 2.271851 13,250 53 360 3328
2018-02-22 19:25:22 GMT 41.128510 2.264099 13,000 53 360 3264
2018-02-22 19:25:18 GMT 41.122787 2.254150 12,675 52 360 2752
2018-02-22 19:25:12 GMT 41.118027 2.245850 12,375 52 360 2112
2018-02-22 19:25:09 GMT 41.114285 2.239338 12,325 52 358 1728
2018-02-22 19:25:04 GMT 41.109585 2.231286 12,175 52 355 1344
2018-02-22 19:25:00 GMT 41.105255 2.223858 12,100 52 351 1216
2018-02-22 19:24:57 GMT 41.103378 2.220703 12,050 52 349 1088
2018-02-22 19:24:54 GMT 41.099442 2.214050 11,975 51 344 960
2018-02-22 19:24:51 GMT 41.095413 2.207214 11,900 52 340 1024
2018-02-22 19:24:47 GMT 41.092987 2.203125 11,800 53 333 1216
2018-02-22 19:24:44 GMT 41.089188 2.196594 11,775 53 333 1216
2018-02-22 19:24:40 GMT 41.086308 2.191523 11,700 54 328 1344
2018-02-22 19:24:37 GMT 41.083282 2.185974 11,625 56 326 1280
2018-02-22 19:24:34 GMT 41.081039 2.181824 11,575 57 325 1152
2018-02-22 19:24:30 GMT 41.077137 2.173483 11,475 64 321 704
2018-02-22 19:24:26 GMT 41.074947 2.167240 11,400 71 317 640
2018-02-22 19:24:23 GMT 41.073597 2.162496 11,375 76 313 576
2018-02-22 19:24:20 GMT 41.072342 2.155884 11,325 81 310 512
2018-02-22 19:24:17 GMT 41.071793 2.151794 11,275 86 306 512
2018-02-22 19:24:13 GMT 41.071316 2.140961 11,200 93 300 768
2018-02-22 19:24:10 GMT 41.071426 2.137878 11,150 98 295 1152
2018-02-22 19:24:07 GMT 41.071922 2.132471 10,900 100 279 1280
2018-02-22 19:24:03 GMT 41.072845 2.125549 11,025 100 288 1344
2018-02-22 19:24:00 GMT 41.073807 2.118713 10,925 100 281 1280
2018-02-22 19:23:56 GMT 41.074528 2.113495 10,850 100 279 1280
2018-02-22 19:23:52 GMT 41.075508 2.106691 10,775 100 272 1344
2018-02-22 19:23:49 GMT 41.076279 2.101562 10,700 101 270 1408
2018-02-22 19:23:45 GMT 41.077469 2.093506 10,575 101 264 1728
2018-02-22 19:23:42 GMT 41.077972 2.090332 10,525 102 261 1728
2018-02-22 19:23:39 GMT 41.078705 2.085754 10,425 103 259 1728
2018-02-22 19:23:35 GMT 41.079651 2.079974 10,325 106 256 1600
2018-02-22 19:23:32 GMT 41.081093 2.073357 10,175 112 252 1472
2018-02-22 19:23:28 GMT 41.082092 2.069824 10,125 116 250 1600
2018-02-22 19:23:24 GMT 41.084930 2.062866 9,950 127 246 2560
2018-02-22 19:23:20 GMT 41.087471 2.058126 9,775 135 246 2816
2018-02-22 19:23:16 GMT 41.090561 2.054016 9,325 140 245 2752
2018-02-22 19:23:12 GMT 41.093765 2.050476 9,275 148 245 2624
2018-02-22 19:23:09 GMT 41.096649 2.047974 9,250 149 245 2624
2018-02-22 19:23:06 GMT 41.100227 2.045142 9,075 149 240 2368
2018-02-22 19:22:58 GMT 41.108326 2.038775 8,750 149 240 2368
2018-02-22 19:22:55 GMT 41.110428 2.037109 8,525 153 236 3008
2018-02-22 19:22:51 GMT 41.114410 2.033936 8,475 149 237 2880
2018-02-22 19:22:48 GMT 41.117218 2.031722 8,300 149 236 3072
2018-02-22 19:22:45 GMT 41.119965 2.029537 8,050 150 236 3264
2018-02-22 19:22:42 GMT 41.122467 2.027588 8,050 150 236 3264
2018-02-22 19:22:38 GMT 41.126221 2.024841 7,700 158 235 2816
2018-02-22 19:22:35 GMT 41.129787 2.022670 7,150 177 231 2688
2018-02-22 19:22:28 GMT 41.137207 2.020020 7,325 177 231 2688
2018-02-22 19:22:25 GMT 41.141006 2.019531 7,175 189 227 2752
2018-02-22 19:22:18 GMT 41.147827 2.020508 6,875 197 224 2880
2018-02-22 19:22:13 GMT 41.152542 2.022217 6,675 199 223 2880
2018-02-22 19:22:07 GMT 41.158356 2.024902 6,275 199 221 2752
2018-02-22 19:22:04 GMT 41.161907 2.026478 6,200 199 220 2880
2018-02-22 19:21:57 GMT 41.168285 2.029350 5,875 199 219 3008
2018-02-22 19:21:54 GMT 41.171539 2.030762 5,650 199 218 3136
2018-02-22 19:21:47 GMT 41.177876 2.033594 5,350 199 218 3328
2018-02-22 19:21:44 GMT 41.181644 2.035280 5,125 199 218 3200
2018-02-22 19:21:37 GMT 41.187698 2.037964 4,775 199 218 3072
2018-02-22 19:21:33 GMT 41.191406 2.039612 4,450 198 217 2752
2018-02-22 19:21:30 GMT 41.193748 2.040586 4,450 198 217 2752
2018-02-22 19:21:27 GMT 41.198219 2.042521 4,225 199 213 2752
2018-02-22 19:21:23 GMT 41.201431 2.043884 4,075 199 213 2432
2018-02-22 19:21:16 GMT 41.207623 2.046703 3,800 200 207 1664
2018-02-22 19:21:12 GMT 41.210678 2.048157 3,700 199 203 640
2018-02-22 19:21:06 GMT 41.216652 2.050885 3,650 199 190 512
2018-02-22 19:21:03 GMT 41.219585 2.052259 3,600 199 181 512
2018-02-22 19:21:00 GMT 41.222145 2.053382 3,600 199 181 512
2018-02-22 19:20:56 GMT 41.225124 2.054631 3,550 198 169 384
2018-02-22 19:20:52 GMT 41.228622 2.056152 3,525 200 138 2112
2018-02-22 19:20:45 GMT 41.232716 2.057814 3,475 197 151 896
2018-02-22 19:20:42 GMT 41.234856 2.058688 3,325 200 138 2112
2018-02-22 19:20:35 GMT 41.239323 2.060498 3,225 198 143 1792
2018-02-22 19:20:31 GMT 41.241558 2.061497 3,125 199 143 1792
2018-02-22 19:20:25 GMT 41.245655 2.063307 2,925 200 138 2112
2018-02-22 19:20:22 GMT 41.247890 2.064306 2,775 200 138 2112
2018-02-22 19:20:14 GMT 41.252357 2.066428 2,550 198 142 2112
2018-02-22 19:20:11 GMT 41.254082 2.067302 2,425 192 142 1728
2018-02-22 19:20:03 GMT 41.259613 2.068176 2,200 172 139 1856
2018-02-22 19:20:00 GMT 41.261391 2.067739 2,075 167 137 1856
2018-02-22 19:19:54 GMT 41.265160 2.066616 1,875 164 132 2176
2018-02-22 19:19:51 GMT 41.267258 2.065857 1,475 164 132 2112
2018-02-22 19:19:43 GMT 41.271652 2.064270 1,475 183 133 1984
2018-02-22 19:19:40 GMT 41.273911 2.064369 1,400 194 133 2304
2018-02-22 19:19:32 GMT 41.277924 2.066162 1,100 221 143 2432
2018-02-22 19:19:28 GMT 41.280304 2.068848 925 234 150 2496
2018-02-22 19:19:23 GMT 41.282135 2.073120 700 247 153 2432
2018-02-22 19:19:20 GMT 41.283005 2.075989 600 247 153 2688
2018-02-22 19:19:13 GMT 41.285084 2.082284 275 246 156 704
2018-02-22 19:19:10 GMT 41.286438 2.086426 200 244 140
2018-02-22 19:19:02 GMT 41.287983 2.090897 0 244 130
2018-02-22 19:18:59 GMT 41.288933 2.093658 0 244 115
2018-02-22 19:18:56 GMT 41.289391 2.094986 0 244 105
2018-02-22 19:18:51 GMT 41.290283 2.097595 0 244 84
2018-02-22 19:18:48 GMT 41.290821 2.099167 0 244 69
2018-02-22 19:18:41 GMT 41.291622 2.101501 0 241 33
2018-02-22 19:18:38 GMT 41.291840 2.102112 0 241 16
2018-02-22 19:18:31 GMT 41.292000 2.102680 0 225 13
2018-02-22 19:18:26 GMT 41.292183 2.102946 0 171 14
2018-02-22 19:18:20 GMT 41.292561 2.102783 0 95 15
2018-02-22 19:18:16 GMT 41.292591 2.102524 0 73 20
2018-02-22 19:18:11 GMT 41.292377 2.101791 0 101 24
2018-02-22 19:18:07 GMT 41.292423 2.101410 0 109 25
2018-02-22 19:18:00 GMT 41.292721 2.100327 0 95 25
2018-02-22 19:17:57 GMT 41.292755 2.099497 0 73 26
2018-02-22 19:17:50 GMT 41.292580 2.098794 0 64 28
2018-02-22 19:17:46 GMT 41.292393 2.098295 0 64 30
2018-02-22 19:17:40 GMT 41.291962 2.097047 0 64 29
2018-02-22 19:17:36 GMT 41.291824 2.096672 0 64 29
2018-02-22 19:17:29 GMT 41.291416 2.095455 0 64 29
2018-02-22 19:17:25 GMT 41.291222 2.094910 0 64 29
2018-02-22 19:17:16 GMT 41.290661 2.093254 0 64 29
2018-02-22 19:17:09 GMT 41.290295 2.092163 0 64 29
2018-02-22 19:17:06 GMT 41.290146 2.091736 0 64 29
2018-02-22 19:16:56 GMT 41.289608 2.090164 0 64 29
2018-02-22 19:16:48 GMT 41.289185 2.088913 0 64 29
2018-02-22 19:16:40 GMT 41.288750 2.087636 0 64 29
2018-02-22 19:16:37 GMT 41.288612 2.087231 0 64 28
2018-02-22 19:16:33 GMT 41.288372 2.086548 0 64 27
2018-02-22 19:16:28 GMT 41.288109 2.085754 0 64 24
2018-02-22 19:16:23 GMT 41.287903 2.085175 0 64 21
2018-02-22 19:16:15 GMT 41.287582 2.084259 0 64 17
2018-02-22 19:16:09 GMT 41.287388 2.083679 0 64 13
2018-02-22 19:16:05 GMT 41.287308 2.083435 0 64 9
2018-02-22 19:15:56 GMT 41.287189 2.083080 0 67 3
2018-02-22 19:15:36 GMT 41.287182 2.083033 0 67 0
2018-02-22 19:15:33 GMT 41.287167 2.083017 0 67 0
2018-02-22 19:15:23 GMT 41.287170 2.083008 0 67 3
2018-02-22 19:15:20 GMT 41.287159 2.082962 0 64 5
2018-02-22 19:15:15 GMT 41.287125 2.082886 0 67 12
2018-02-22 19:15:11 GMT 41.287033 2.082596 0 64 19
2018-02-22 19:15:03 GMT 41.286728 2.081738 0 67 18
2018-02-22 19:15:00 GMT 41.286633 2.081467 0 64 17
2018-02-22 19:14:55 GMT 41.286480 2.081004 0 61 15
2018-02-22 19:14:50 GMT 41.286324 2.080658 0 73 14
2018-02-22 19:14:45 GMT 41.286221 2.080154 0 120 15
2018-02-22 19:14:39 GMT 41.286404 2.079773 0 151 19
2018-02-22 19:14:32 GMT 41.286953 2.079422 0 154 21
2018-02-22 19:14:28 GMT 41.287285 2.079209 0 154 19
2018-02-22 19:14:22 GMT 41.287800 2.078918 0 154 15
2018-02-22 19:14:13 GMT 41.288292 2.078613 0 168 11
2018-02-22 19:14:03 GMT 41.288704 2.078583 0 225 5
2018-02-22 19:13:38 GMT 41.288830 2.078705 0 247 0
2018-02-22 19:13:29 GMT 41.288822 2.078694 0 247 0
2018-02-22 19:13:19 GMT 41.288830 2.078705 0 247 0
2018-02-22 19:13:14 GMT 41.288822 2.078694 0 247 0
2018-02-22 19:13:00 GMT 41.288830 2.078705 0 247 0
2018-02-22 19:12:29 GMT 41.288822 2.078694 0 247 0
2018-02-22 19:12:19 GMT 41.288830 2.078705 0 247 0
2018-02-22 19:12:10 GMT 41.288822 2.078694 0 247 3
2018-02-22 19:11:42 GMT 41.288738 2.078217 0 264 4
2018-02-22 19:11:37 GMT 41.288750 2.078094 0 270 4
2018-02-22 19:11:28 GMT 41.288773 2.077911 0 272 4
2018-02-22 19:11:13 GMT 41.288807 2.077621 0 278 4
2018-02-22 19:11:05 GMT 41.288841 2.077454 0 281 4
2018-02-22 19:10:59 GMT 41.288879 2.077321 0 284 4

Making use of Plane Finder data

You are free to use the raw flight data, aircraft information and images provided in this report for your own purposes provided the data is correctly attributed to Plane Finder. We ask that you please credit Plane Finder and link to planefinder.net in close proximity to the content.

Optionally one of the following logos (no smaller then 150x24px) can be used and must link to planefinder.net

Embedding the Plane Finder map

You are welcome to embed the Plane Finder playback map on your website to offer visitors a more interactive experience. We suggest using the following HTML code:

<iframe src="//planefinder.net/data/report/LX1957-HB-IOD-7700-squawk-2018-02-22/map" width="800" height="600" seamless="seamless"></iframe>

Where our data comes from

Plane Finder has a global network of data feeds and antenna radars that receive data broadcast directly from aircraft. The primary technologies used are ADS-B and MLAT. We also show feeds from the FAA and a FLARM glider feed.

Click here to find out more about the Plane Finder network.

How we collect our data